Time;durP1;ratioP1;P1;durP2;ratioP2;P2;SDS_P1;SDS_P2;PMS_P1;PMS_P2;Temp;Humidity;BMP_temperature;BMP_pressure;BME280_temperature;BME280_humidity;BME280_pressure;Samples;Min_cycle;Max_cycle;Signal;HPM_P1;HPM_P2
2023/08/24 00:01:08;;;;;;;;;;;;;;;;;;5072118;28;19921;-68
2023/08/24 00:03:34;;;;;;;;;;;;;;;;;;5074131;28;19912;-69
2023/08/24 00:05:59;;;;;;;;;;;;;;;;;;5063100;28;19967;-68
2023/08/24 00:08:25;;;;;;;;;;;;;;;;;;5071969;28;19979;-70
2023/08/24 00:10:51;;;;;;;;;;;;;;;;;;5070824;28;19919;-68
2023/08/24 00:13:17;;;;;;;;;;;;;;;;;;5060347;28;19927;-69
2023/08/24 00:15:43;;;;;;;;;;;;;;;;;;5072599;28;20006;-69
2023/08/24 00:18:09;;;;;;;;;;;;;;;;;;5063838;28;20062;-69
2023/08/24 00:20:37;;;;;;;;;;;;;;;;;;5073263;28;20399;-68
2023/08/24 00:23:02;;;;;;;;;;;;;;;;;;5064418;28;19960;-62
2023/08/24 00:25:29;;;;;;;;;;;;;;;;;;5086367;28;20045;-69
2023/08/24 00:27:55;;;;;;;;;;;;;;;;;;5068642;28;19999;-68
2023/08/24 00:30:21;;;;;;;;;;;;;;;;;;5061906;28;20435;-68
2023/08/24 00:32:47;;;;;;;;;;;;;;;;;;5066567;28;20349;-69
2023/08/24 00:35:13;;;;;;;;;;;;;;;;;;5065341;28;20396;-69
2023/08/24 00:37:39;;;;;;;;;;;;;;;;;;5074090;28;19916;-69
2023/08/24 00:40:08;;;;;;;;;;;;;;;;;;5062169;28;19944;-69
2023/08/24 00:42:34;;;;;;;;;;;;;;;;;;5066832;28;19917;-68
2023/08/24 00:45:00;;;;;;;;;;;;;;;;;;5064021;28;20024;-69
2023/08/24 00:47:26;;;;;;;;;;;;;;;;;;5065402;28;20046;-69
2023/08/24 00:49:52;;;;;;;;;;;;;;;;;;5069402;28;20384;-69
2023/08/24 00:52:18;;;;;;;;;;;;;;;;;;5070080;28;19958;-68
2023/08/24 00:54:44;;;;;;;;;;;;;;;;;;5068628;28;19951;-70
2023/08/24 00:57:10;;;;;;;;;;;;;;;;;;5069977;28;20003;-66
2023/08/24 00:59:35;;;;;;;;;;;;;;;;;;5061291;28;19952;-62
2023/08/24 01:02:01;;;;;;;;;;;;;;;;;;5069169;28;19912;-69
2023/08/24 01:04:27;;;;;;;;;;;;;;;;;;5068142;28;19959;-68
2023/08/24 01:06:53;;;;;;;;;;;;;;;;;;5063773;28;20424;-69
2023/08/24 01:09:20;;;;;;;;;;;;;;;;;;5060792;28;19916;-69
2023/08/24 01:11:46;;;;;;;;;;;;;;;;;;5070588;28;19917;-70
2023/08/24 01:14:14;;;;;;;;;;;;;;;;;;5066975;28;19908;-68
2023/08/24 01:16:40;;;;;;;;;;;;;;;;;;5065688;28;20051;-69
2023/08/24 01:19:06;;;;;;;;;;;;;;;;;;5054530;28;20022;-69
2023/08/24 01:21:32;;;;;;;;;;;;;;;;;;5070401;28;20458;-69
2023/08/24 01:23:58;;;;;;;;;;;;;;;;;;5072437;28;19909;-69
2023/08/24 01:26:24;;;;;;;;;;;;;;;;;;5065006;28;20394;-69
2023/08/24 01:28:50;;;;;;;;;;;;;;;;;;5066454;28;19974;-63
2023/08/24 01:31:16;;;;;;;;;;;;;;;;;;5053305;28;20288;-63
2023/08/24 01:33:42;;;;;;;;;;;;;;;;;;5060609;28;19912;-63
2023/08/24 01:36:08;;;;;;;;;;;;;;;;;;5067978;28;19917;-63
2023/08/24 01:38:34;;;;;;;;;;;;;;;;;;5070022;28;19956;-63
2023/08/24 01:41:00;;;;;;;;;;;;;;;;;;5065054;28;19964;-63
2023/08/24 01:43:26;;;;;;;;;;;;;;;;;;5067712;28;19956;-63
2023/08/24 01:45:52;;;;;;;;;;;;;;;;;;5069794;28;19912;-63
2023/08/24 01:48:18;;;;;;;;;;;;;;;;;;5067301;28;20039;-63
2023/08/24 01:50:44;;;;;;;;;;;;;;;;;;5069182;28;19916;-63
2023/08/24 01:53:09;;;;;;;;;;;;;;;;;;5065942;28;19964;-62
2023/08/24 01:55:35;;;;;;;;;;;;;;;;;;5057668;28;19967;-63
2023/08/24 01:58:01;;;;;;;;;;;;;;;;;;5060875;28;20376;-62
2023/08/24 02:00:28;;;;;;;;;;;;;;;;;;5061971;28;19919;-63
2023/08/24 02:02:54;;;;;;;;;;;;;;;;;;5063914;28;19962;-63
2023/08/24 02:05:20;;;;;;;;;;;;;;;;;;5064185;28;19955;-63
2023/08/24 02:07:46;;;;;;;;;;;;;;;;;;5064229;28;20355;-62
2023/08/24 02:10:12;;;;;;;;;;;;;;;;;;5068300;28;19963;-62
2023/08/24 02:12:37;;;;;;;;;;;;;;;;;;5065721;28;19952;-63
2023/08/24 02:15:03;;;;;;;;;;;;;;;;;;5064452;28;20399;-63
2023/08/24 02:17:29;;;;;;;;;;;;;;;;;;5064130;28;20019;-63
2023/08/24 02:19:55;;;;;;;;;;;;;;;;;;5067866;28;19992;-62
2023/08/24 02:22:21;;;;;;;;;;;;;;;;;;5065963;28;19924;-62
2023/08/24 02:24:47;;;;;;;;;;;;;;;;;;5064671;28;19916;-63
2023/08/24 02:27:13;;;;;;;;;;;;;;;;;;5066335;28;19973;-63
2023/08/24 02:29:39;;;;;;;;;;;;;;;;;;5069775;28;20380;-62
2023/08/24 02:32:05;;;;;;;;;;;;;;;;;;5062386;28;19924;-63
2023/08/24 02:34:31;;;;;;;;;;;;;;;;;;5064157;28;20005;-62
2023/08/24 02:36:57;;;;;;;;;;;;;;;;;;5058645;28;19912;-63
2023/08/24 02:39:23;;;;;;;;;;;;;;;;;;5060220;28;19919;-64
2023/08/24 02:41:49;;;;;;;;;;;;;;;;;;5059184;28;19951;-63
2023/08/24 02:44:15;;;;;;;;;;;;;;;;;;5066078;28;19920;-63
2023/08/24 02:46:42;;;;;;;;;;;;;;;;;;5057552;28;19916;-63
2023/08/24 02:49:08;;;;;;;;;;;;;;;;;;5070849;28;19916;-63
2023/08/24 02:51:34;;;;;;;;;;;;;;;;;;5071923;28;19913;-63
2023/08/24 02:54:00;;;;;;;;;;;;;;;;;;5067088;28;19916;-63
2023/08/24 02:56:26;;;;;;;;;;;;;;;;;;5060627;28;19960;-63
2023/08/24 02:58:52;;;;;;;;;;;;;;;;;;5058582;28;20053;-63
2023/08/24 03:01:18;;;;;;;;;;;;;;;;;;5064261;28;19916;-63
2023/08/24 03:03:44;;;;;;;;;;;;;;;;;;5063431;28;20374;-63
2023/08/24 03:06:10;;;;;;;;;;;;;;;;;;5052807;28;19927;-63
2023/08/24 03:08:36;;;;;;;;;;;;;;;;;;5064272;28;20027;-63
2023/08/24 03:11:02;;;;;;;;;;;;;;;;;;5066292;28;19973;-63
2023/08/24 03:13:28;;;;;;;;;;;;;;;;;;5069973;28;20395;-63
2023/08/24 03:15:54;;;;;;;;;;;;;;;;;;5060584;28;19967;-63
2023/08/24 03:18:20;;;;;;;;;;;;;;;;;;5059897;28;19913;-63
2023/08/24 03:20:47;;;;;;;;;;;;;;;;;;5072327;28;20336;-63
2023/08/24 03:23:12;;;;;;;;;;;;;;;;;;5074054;28;20008;-63
2023/08/24 03:25:38;;;;;;;;;;;;;;;;;;5070075;28;19952;-63
2023/08/24 03:28:04;;;;;;;;;;;;;;;;;;5067374;28;19912;-63
2023/08/24 03:30:30;;;;;;;;;;;;;;;;;;5065815;28;19943;-63
2023/08/24 03:32:56;;;;;;;;;;;;;;;;;;5067488;28;20356;-63
2023/08/24 03:35:22;;;;;;;;;;;;;;;;;;5056565;28;19995;-63
2023/08/24 03:37:48;;;;;;;;;;;;;;;;;;5061790;28;19952;-63
2023/08/24 03:40:14;;;;;;;;;;;;;;;;;;5067971;28;20283;-63
2023/08/24 03:42:40;;;;;;;;;;;;;;;;;;5059501;28;19925;-63
2023/08/24 03:45:06;;;;;;;;;;;;;;;;;;5063955;28;20381;-63
2023/08/24 03:47:32;;;;;;;;;;;;;;;;;;5073659;28;19971;-63
2023/08/24 03:49:59;;;;;;;;;;;;;;;;;;5069806;28;19966;-62
2023/08/24 03:52:25;;;;;;;;;;;;;;;;;;5060059;28;19917;-63
2023/08/24 03:54:50;;;;;;;;;;;;;;;;;;5063723;28;19934;-62
2023/08/24 03:57:16;;;;;;;;;;;;;;;;;;5063684;28;20380;-62
2023/08/24 03:59:42;;;;;;;;;;;;;;;;;;5063754;28;19927;-63
2023/08/24 04:02:08;;;;;;;;;;;;;;;;;;5058788;28;20311;-63
2023/08/24 04:04:34;;;;;;;;;;;;;;;;;;5065742;28;19970;-62
2023/08/24 04:07:00;;;;;;;;;;;;;;;;;;5067974;28;19956;-62
2023/08/24 04:09:26;;;;;;;;;;;;;;;;;;5062843;28;20414;-62
2023/08/24 04:11:52;;;;;;;;;;;;;;;;;;5062892;28;19995;-62
2023/08/24 04:14:18;;;;;;;;;;;;;;;;;;5067263;28;19919;-62
2023/08/24 04:16:43;;;;;;;;;;;;;;;;;;5065856;28;20380;-62
2023/08/24 04:19:09;;;;;;;;;;;;;;;;;;5064417;28;19923;-62
2023/08/24 04:21:35;;;;;;;;;;;;;;;;;;5064905;28;19948;-62
2023/08/24 04:24:02;;;;;;;;;;;;;;;;;;5069670;28;19956;-62
2023/08/24 04:26:28;;;;;;;;;;;;;;;;;;5064282;28;19955;-62
2023/08/24 04:28:54;;;;;;;;;;;;;;;;;;5068151;28;19960;-62
2023/08/24 04:31:20;;;;;;;;;;;;;;;;;;5059719;28;19916;-63
2023/08/24 04:33:45;;;;;;;;;;;;;;;;;;5060844;28;19988;-62
2023/08/24 04:36:11;;;;;;;;;;;;;;;;;;5065265;28;19979;-62
2023/08/24 04:38:37;;;;;;;;;;;;;;;;;;5062141;28;21883;-62
2023/08/24 04:41:07;;;;;;;;;;;;;;;;;;5060887;28;19940;-62
2023/08/24 04:43:33;;;;;;;;;;;;;;;;;;5074784;28;19920;-62
2023/08/24 04:45:59;;;;;;;;;;;;;;;;;;5061617;28;19955;-62
2023/08/24 04:48:25;;;;;;;;;;;;;;;;;;5060751;28;19938;-62
2023/08/24 04:50:52;;;;;;;;;;;;;;;;;;5059830;28;20071;-62
2023/08/24 04:53:18;;;;;;;;;;;;;;;;;;5058602;28;19992;-62
2023/08/24 04:55:44;;;;;;;;;;;;;;;;;;5069024;28;20007;-62
2023/08/24 04:58:10;;;;;;;;;;;;;;;;;;5069986;28;20012;-62
2023/08/24 05:00:36;;;;;;;;;;;;;;;;;;5063554;28;20022;-64
2023/08/24 05:03:02;;;;;;;;;;;;;;;;;;5065520;28;19995;-64
2023/08/24 05:05:28;;;;;;;;;;;;;;;;;;5071571;28;20008;-64
2023/08/24 05:07:54;;;;;;;;;;;;;;;;;;5062642;28;19912;-64
2023/08/24 05:10:20;;;;;;;;;;;;;;;;;;5064864;28;19920;-64
2023/08/24 05:12:46;;;;;;;;;;;;;;;;;;5069913;28;20454;-64
2023/08/24 05:15:13;;;;;;;;;;;;;;;;;;5054749;28;19913;-64
2023/08/24 05:17:39;;;;;;;;;;;;;;;;;;5065232;28;19921;-63
2023/08/24 05:20:05;;;;;;;;;;;;;;;;;;5051663;28;19987;-63
2023/08/24 05:22:31;;;;;;;;;;;;;;;;;;5071952;28;19912;-63
2023/08/24 05:24:57;;;;;;;;;;;;;;;;;;5065494;28;19954;-63
2023/08/24 05:27:22;;;;;;;;;;;;;;;;;;5068213;28;20332;-63
2023/08/24 05:29:48;;;;;;;;;;;;;;;;;;5071897;28;20014;-63
2023/08/24 05:32:14;;;;;;;;;;;;;;;;;;5066425;28;19919;-63
2023/08/24 05:34:40;;;;;;;;;;;;;;;;;;5067643;28;20356;-63
2023/08/24 05:37:06;;;;;;;;;;;;;;;;;;5070019;28;20007;-62
2023/08/24 05:39:32;;;;;;;;;;;;;;;;;;5064628;28;19912;-61
2023/08/24 05:41:58;;;;;;;;;;;;;;;;;;5067220;28;19920;-61
2023/08/24 05:44:24;;;;;;;;;;;;;;;;;;5063104;28;19948;-61
2023/08/24 05:46:50;;;;;;;;;;;;;;;;;;5070210;28;19916;-62
2023/08/24 05:49:15;;;;;;;;;;;;;;;;;;5064309;28;20368;-63
2023/08/24 05:51:41;;;;;;;;;;;;;;;;;;5059416;28;19958;-63
2023/08/24 05:54:07;;;;;;;;;;;;;;;;;;5059534;28;19916;-63
2023/08/24 05:56:33;;;;;;;;;;;;;;;;;;5073235;28;19948;-63
2023/08/24 05:58:59;;;;;;;;;;;;;;;;;;5067828;28;19919;-63
2023/08/24 06:01:25;;;;;;;;;;;;;;;;;;5054687;28;19916;-63
2023/08/24 06:03:51;;;;;;;;;;;;;;;;;;5059033;28;20394;-63
2023/08/24 06:06:17;;;;;;;;;;;;;;;;;;5063460;28;19968;-63
2023/08/24 06:08:43;;;;;;;;;;;;;;;;;;5058794;28;20316;-67
2023/08/24 06:11:09;;;;;;;;;;;;;;;;;;5064637;28;19987;-66
2023/08/24 06:13:35;;;;;;;;;;;;;;;;;;5057223;28;19917;-67
2023/08/24 06:16:01;;;;;;;;;;;;;;;;;;5062476;28;19963;-66
2023/08/24 06:18:27;;;;;;;;;;;;;;;;;;5065743;28;19966;-67
2023/08/24 06:20:53;;;;;;;;;;;;;;;;;;5065852;28;19916;-66
2023/08/24 06:23:19;;;;;;;;;;;;;;;;;;5066613;28;19923;-67
2023/08/24 06:25:45;;;;;;;;;;;;;;;;;;5069111;28;19992;-67
2023/08/24 06:28:11;;;;;;;;;;;;;;;;;;5068606;28;20001;-67
2023/08/24 06:30:38;;;;;;;;;;;;;;;;;;5065008;28;19944;-67
2023/08/24 06:33:04;;;;;;;;;;;;;;;;;;5071222;28;20508;-67
2023/08/24 06:35:30;;;;;;;;;;;;;;;;;;5062088;28;20016;-67
2023/08/24 06:37:56;;;;;;;;;;;;;;;;;;5060409;28;19932;-66
2023/08/24 06:40:22;;;;;;;;;;;;;;;;;;5055916;28;20368;-64
2023/08/24 06:42:48;;;;;;;;;;;;;;;;;;5057970;28;19913;-67
2023/08/24 06:45:14;;;;;;;;;;;;;;;;;;5057234;28;19961;-67
2023/08/24 06:47:40;;;;;;;;;;;;;;;;;;5067166;28;20065;-67
2023/08/24 06:50:06;;;;;;;;;;;;;;;;;;5064206;28;20428;-66
2023/08/24 06:52:32;;;;;;;;;;;;;;;;;;5057114;28;19920;-68
2023/08/24 06:54:58;;;;;;;;;;;;;;;;;;5066157;28;19965;-67
2023/08/24 06:57:23;;;;;;;;;;;;;;;;;;5060175;28;19909;-68
2023/08/24 06:59:49;;;;;;;;;;;;;;;;;;5062050;28;20429;-67
2023/08/24 07:02:17;;;;;;;;;;;;;;;;;;5059611;28;19991;-66
2023/08/24 07:04:43;;;;;;;;;;;;;;;;;;5055791;28;20375;-67
2023/08/24 07:07:09;;;;;;;;;;;;;;;;;;5058480;28;19936;-67
2023/08/24 07:09:35;;;;;;;;;;;;;;;;;;5062288;28;19932;-67
2023/08/24 07:12:01;;;;;;;;;;;;;;;;;;5058681;28;19931;-68
2023/08/24 07:14:27;;;;;;;;;;;;;;;;;;5060549;28;19952;-66
2023/08/24 07:16:53;;;;;;;;;;;;;;;;;;5060176;28;19913;-66
2023/08/24 07:19:19;;;;;;;;;;;;;;;;;;5059883;28;19948;-60
2023/08/24 07:21:45;;;;;;;;;;;;;;;;;;5063306;28;19944;-62
2023/08/24 07:24:11;;;;;;;;;;;;;;;;;;5068444;28;20356;-59
2023/08/24 07:26:37;;;;;;;;;;;;;;;;;;5062987;28;19912;-57
2023/08/24 07:29:03;;;;;;;;;;;;;;;;;;5067220;28;20054;-61
2023/08/24 07:31:29;;;;;;;;;;;;;;;;;;5063012;28;19955;-57
2023/08/24 07:33:55;;;;;;;;;;;;;;;;;;5066955;28;19952;-57
2023/08/24 07:36:21;;;;;;;;;;;;;;;;;;5068260;28;20395;-60
2023/08/24 07:38:47;;;;;;;;;;;;;;;;;;5073343;28;19970;-57
2023/08/24 07:41:13;;;;;;;;;;;;;;;;;;5062221;28;20280;-58
2023/08/24 07:43:39;;;;;;;;;;;;;;;;;;5067828;28;19923;-59
2023/08/24 07:46:05;;;;;;;;;;;;;;;;;;5060779;28;19917;-58
2023/08/24 07:48:31;;;;;;;;;;;;;;;;;;5063600;28;20014;-57
2023/08/24 07:50:57;;;;;;;;;;;;;;;;;;5064398;28;19920;-57
2023/08/24 07:53:23;;;;;;;;;;;;;;;;;;5066785;28;20293;-58
2023/08/24 07:55:49;;;;;;;;;;;;;;;;;;5066109;28;19921;-59
2023/08/24 07:58:15;;;;;;;;;;;;;;;;;;5062183;28;19952;-57
2023/08/24 08:00:41;;;;;;;;;;;;;;;;;;5068129;28;19919;-57
2023/08/24 08:03:06;;;;;;;;;;;;;;;;;;5067888;28;20377;-58
2023/08/24 08:05:32;;;;;;;;;;;;;;;;;;5080513;28;19923;-61
2023/08/24 08:07:58;;;;;;;;;;;;;;;;;;5062842;28;19917;-57
2023/08/24 08:10:24;;;;;;;;;;;;;;;;;;5058090;28;19980;-59
2023/08/24 08:12:50;;;;;;;;;;;;;;;;;;5076096;28;19952;-57
2023/08/24 08:15:16;;;;;;;;;;;;;;;;;;5063819;28;19959;-56
2023/08/24 08:17:42;;;;;;;;;;;;;;;;;;5073701;28;19916;-57
2023/08/24 08:20:08;;;;;;;;;;;;;;;;;;5065251;28;19987;-56
2023/08/24 08:22:38;;;;;;;;;;;;;;;;;;5062575;28;20408;-57
2023/08/24 08:25:04;;;;;;;;;;;;;;;;;;5063983;28;19908;-57
2023/08/24 08:27:30;;;;;;;;;;;;;;;;;;5074359;28;19916;-58
2023/08/24 08:29:56;;;;;;;;;;;;;;;;;;5065928;28;19960;-61
2023/08/24 08:32:26;;;;;;;;;;;;;;;;;;5070232;28;19912;-61
2023/08/24 08:34:52;;;;;;;;;;;;;;;;;;5068796;28;19913;-61
2023/08/24 08:37:18;;;;;;;;;;;;;;;;;;5061344;28;20018;-61
2023/08/24 08:39:44;;;;;;;;;;;;;;;;;;5064276;28;19916;-61
2023/08/24 08:42:10;;;;;;;;;;;;;;;;;;5069397;28;20257;-61
2023/08/24 08:44:36;;;;;;;;;;;;;;;;;;5066423;28;19912;-61
2023/08/24 08:47:02;;;;;;;;;;;;;;;;;;5057623;28;19955;-61
2023/08/24 08:49:28;;;;;;;;;;;;;;;;;;5059516;28;20024;-61
2023/08/24 08:51:54;;;;;;;;;;;;;;;;;;5069284;28;20350;-61
2023/08/24 08:54:19;;;;;;;;;;;;;;;;;;5071512;28;19982;-61
2023/08/24 08:56:45;;;;;;;;;;;;;;;;;;5060293;28;20344;-61
2023/08/24 08:59:11;;;;;;;;;;;;;;;;;;5069490;28;20003;-61
2023/08/24 09:01:37;;;;;;;;;;;;;;;;;;5055151;28;19912;-61
2023/08/24 09:04:03;;;;;;;;;;;;;;;;;;5056460;28;19920;-61
2023/08/24 09:06:29;;;;;;;;;;;;;;;;;;5068873;28;20340;-61
2023/08/24 09:08:55;;;;;;;;;;;;;;;;;;5062621;28;19942;-61
2023/08/24 09:11:21;;;;;;;;;;;;;;;;;;5057714;28;19957;-61
2023/08/24 09:13:47;;;;;;;;;;;;;;;;;;5055128;28;20321;-61
2023/08/24 09:16:17;;;;;;;;;;;;;;;;;;5056633;28;20074;-61
2023/08/24 09:18:42;;;;;;;;;;;;;;;;;;5062090;28;19960;-61
2023/08/24 09:21:09;;;;;;;;;;;;;;;;;;5056046;28;19974;-61
2023/08/24 09:23:35;;;;;;;;;;;;;;;;;;5062327;28;19956;-61
2023/08/24 09:26:01;;;;;;;;;;;;;;;;;;5054183;28;20361;-61
2023/08/24 09:28:26;;;;;;;;;;;;;;;;;;5057116;28;19912;-61
2023/08/24 09:30:52;;;;;;;;;;;;;;;;;;5065723;28;19959;-61
2023/08/24 09:33:18;;;;;;;;;;;;;;;;;;5062615;28;19959;-61
2023/08/24 09:35:44;;;;;;;;;;;;;;;;;;5058934;28;20757;-61
2023/08/24 09:38:10;;;;;;;;;;;;;;;;;;5066965;28;19920;-61
2023/08/24 09:40:36;;;;;;;;;;;;;;;;;;5068208;28;19916;-58
2023/08/24 09:43:04;;;;;;;;;;;;;;;;;;5066009;28;19916;-60
2023/08/24 09:45:32;;;;;;;;;;;;;;;;;;5064899;28;20387;-56
2023/08/24 09:47:58;;;;;;;;;;;;;;;;;;5061252;28;19909;-57
2023/08/24 09:50:23;;;;;;;;;;;;;;;;;;5063206;28;19952;-58
2023/08/24 09:52:49;;;;;;;;;;;;;;;;;;5069687;28;19919;-57
2023/08/24 09:55:15;;;;;;;;;;;;;;;;;;5060088;28;19913;-57
2023/08/24 09:57:41;;;;;;;;;;;;;;;;;;5082283;28;20355;-57
2023/08/24 10:00:10;;;;;;;;;;;;;;;;;;5072533;28;20003;-57
2023/08/24 10:02:36;;;;;;;;;;;;;;;;;;5071227;28;20383;-59
2023/08/24 10:05:02;;;;;;;;;;;;;;;;;;5068869;28;19944;-57
2023/08/24 10:07:28;;;;;;;;;;;;;;;;;;5072266;28;19919;-58
2023/08/24 10:09:54;;;;;;;;;;;;;;;;;;5069854;28;19959;-58
2023/08/24 10:12:20;;;;;;;;;;;;;;;;;;5056540;28;19954;-59
2023/08/24 10:14:46;;;;;;;;;;;;;;;;;;5069297;28;20367;-58
2023/08/24 10:17:12;;;;;;;;;;;;;;;;;;5058057;28;20010;-56
2023/08/24 10:19:38;;;;;;;;;;;;;;;;;;5083942;28;19921;-57
2023/08/24 10:22:04;;;;;;;;;;;;;;;;;;5084463;28;19959;-58
2023/08/24 10:24:29;;;;;;;;;;;;;;;;;;5072312;28;19912;-56
2023/08/24 10:26:55;;;;;;;;;;;;;;;;;;5071721;28;19909;-56
2023/08/24 10:29:21;;;;;;;;;;;;;;;;;;5071319;28;20091;-60
2023/08/24 10:31:47;;;;;;;;;;;;;;;;;;5065054;28;20339;-57
2023/08/24 10:34:13;;;;;;;;;;;;;;;;;;5060398;28;19908;-57
2023/08/24 10:36:39;;;;;;;;;;;;;;;;;;5071676;28;19922;-57
2023/08/24 10:39:05;;;;;;;;;;;;;;;;;;5067957;28;19982;-56
2023/08/24 10:41:31;;;;;;;;;;;;;;;;;;5070396;28;20458;-57
2023/08/24 10:43:57;;;;;;;;;;;;;;;;;;5066940;28;19948;-57
2023/08/24 10:46:23;;;;;;;;;;;;;;;;;;5064258;28;20059;-57
2023/08/24 10:48:48;;;;;;;;;;;;;;;;;;5070189;28;19920;-60
2023/08/24 10:51:19;;;;;;;;;;;;;;;;;;5064048;28;19923;-57
2023/08/24 10:53:45;;;;;;;;;;;;;;;;;;5063294;28;20342;-58
2023/08/24 10:56:14;;;;;;;;;;;;;;;;;;5062833;28;19982;-59
2023/08/24 10:58:40;;;;;;;;;;;;;;;;;;5063732;28;19917;-58
2023/08/24 11:01:06;;;;;;;;;;;;;;;;;;5069563;28;19981;-59
2023/08/24 11:03:35;;;;;;;;;;;;;;;;;;5055749;28;19923;-57
2023/08/24 11:06:00;;;;;;;;;;;;;;;;;;5067406;28;20296;-57
2023/08/24 11:08:26;;;;;;;;;;;;;;;;;;5066824;28;19959;-58
2023/08/24 11:10:54;;;;;;;;;;;;;;;;;;5070194;28;19916;-57
2023/08/24 11:13:22;;;;;;;;;;;;;;;;;;5064833;28;20421;-57
2023/08/24 11:15:54;;;;;;;;;;;;;;;;;;5061612;28;19913;-58
2023/08/24 11:18:21;;;;;;;;;;;;;;;;;;5059081;28;19921;-59
2023/08/24 11:20:47;;;;;;;;;;;;;;;;;;5059781;28;19920;-57
2023/08/24 11:23:13;;;;;;;;;;;;;;;;;;5068533;28;19921;-59
2023/08/24 11:25:38;;;;;;;;;;;;;;;;;;5068636;28;20348;-58
2023/08/24 11:28:04;;;;;;;;;;;;;;;;;;5070158;28;19959;-58
2023/08/24 11:30:30;;;;;;;;;;;;;;;;;;5069088;28;20019;-57
2023/08/24 11:32:56;;;;;;;;;;;;;;;;;;5070610;28;19913;-57
2023/08/24 11:35:23;;;;;;;;;;;;;;;;;;5068745;28;20359;-58
2023/08/24 11:37:49;;;;;;;;;;;;;;;;;;5074719;28;19912;-58
2023/08/24 11:40:14;;;;;;;;;;;;;;;;;;5061133;28;19947;-57
2023/08/24 11:42:40;;;;;;;;;;;;;;;;;;5062391;28;19956;-58
2023/08/24 11:45:06;;;;;;;;;;;;;;;;;;5067816;28;19998;-60
2023/08/24 11:47:32;;;;;;;;;;;;;;;;;;5069543;28;19962;-58
2023/08/24 11:49:58;;;;;;;;;;;;;;;;;;5062248;28;19923;-59
2023/08/24 11:52:24;;;;;;;;;;;;;;;;;;5067481;28;19913;-57
2023/08/24 11:54:51;;;;;;;;;;;;;;;;;;5070058;28;19950;-62
2023/08/24 11:57:17;;;;;;;;;;;;;;;;;;5069561;28;20288;-58
2023/08/24 11:59:43;;;;;;;;;;;;;;;;;;5064032;28;19952;-62
2023/08/24 12:02:10;;;;;;;;;;;;;;;;;;5066838;28;19954;-62
2023/08/24 12:04:36;;;;;;;;;;;;;;;;;;5066156;28;19935;-62
2023/08/24 12:07:02;;;;;;;;;;;;;;;;;;5059074;28;19912;-62
2023/08/24 12:09:28;;;;;;;;;;;;;;;;;;5064722;28;19912;-62
2023/08/24 12:11:54;;;;;;;;;;;;;;;;;;5062885;28;19920;-62
2023/08/24 12:14:20;;;;;;;;;;;;;;;;;;5060422;28;20393;-62
2023/08/24 12:16:46;;;;;;;;;;;;;;;;;;5065328;28;20054;-62
2023/08/24 12:19:13;;;;;;;;;;;;;;;;;;5062997;28;19943;-62
2023/08/24 12:21:39;;;;;;;;;;;;;;;;;;5068857;28;19908;-62
2023/08/24 12:24:05;;;;;;;;;;;;;;;;;;5072221;28;19959;-62
2023/08/24 12:26:31;;;;;;;;;;;;;;;;;;5062602;28;19917;-62
2023/08/24 12:28:57;;;;;;;;;;;;;;;;;;5057008;28;19960;-62
2023/08/24 12:31:23;;;;;;;;;;;;;;;;;;5058159;28;20008;-62
2023/08/24 12:33:49;;;;;;;;;;;;;;;;;;5069991;28;19923;-62
2023/08/24 12:36:15;;;;;;;;;;;;;;;;;;5068435;28;19908;-62
2023/08/24 12:38:42;;;;;;;;;;;;;;;;;;5060102;28;19921;-62
2023/08/24 12:41:08;;;;;;;;;;;;;;;;;;5072532;28;19908;-62
2023/08/24 12:43:35;;;;;;;;;;;;;;;;;;5072630;28;19912;-62
2023/08/24 12:46:01;;;;;;;;;;;;;;;;;;5065481;28;20285;-63
2023/08/24 12:48:27;;;;;;;;;;;;;;;;;;5069642;28;20310;-63
2023/08/24 12:50:53;;;;;;;;;;;;;;;;;;5070535;28;19951;-63
2023/08/24 12:53:19;;;;;;;;;;;;;;;;;;5070019;28;19909;-62
2023/08/24 12:55:45;;;;;;;;;;;;;;;;;;5060211;28;20349;-63
2023/08/24 12:58:11;;;;;;;;;;;;;;;;;;5071662;28;19908;-63
2023/08/24 13:00:37;;;;;;;;;;;;;;;;;;5067058;28;20380;-63
2023/08/24 13:03:03;;;;;;;;;;;;;;;;;;5066194;28;20344;-63
2023/08/24 13:05:29;;;;;;;;;;;;;;;;;;5061751;28;20387;-63
2023/08/24 13:07:56;;;;;;;;;;;;;;;;;;5057813;28;19922;-63
2023/08/24 13:10:21;;;;;;;;;;;;;;;;;;5062965;28;20330;-65
2023/08/24 13:12:47;;;;;;;;;;;;;;;;;;5067252;28;19912;-65
2023/08/24 13:15:15;;;;;;;;;;;;;;;;;;5069535;28;19977;-66
2023/08/24 13:17:40;;;;;;;;;;;;;;;;;;5069100;28;20398;-66
2023/08/24 13:20:07;;;;;;;;;;;;;;;;;;5055970;28;19999;-65
2023/08/24 13:22:33;;;;;;;;;;;;;;;;;;5062829;28;19912;-65
2023/08/24 13:24:59;;;;;;;;;;;;;;;;;;5061910;28;19988;-66
2023/08/24 13:27:25;;;;;;;;;;;;;;;;;;5064946;28;19916;-66
2023/08/24 13:29:51;;;;;;;;;;;;;;;;;;5070237;28;20372;-64
2023/08/24 13:32:18;;;;;;;;;;;;;;;;;;5065782;28;20007;-67
2023/08/24 13:34:44;;;;;;;;;;;;;;;;;;5065681;28;19928;-66
2023/08/24 13:37:10;;;;;;;;;;;;;;;;;;5061521;28;20300;-66
2023/08/24 13:39:36;;;;;;;;;;;;;;;;;;5055608;28;19940;-65
2023/08/24 13:42:02;;;;;;;;;;;;;;;;;;5064760;28;19943;-66
2023/08/24 13:44:28;;;;;;;;;;;;;;;;;;5063020;28;19975;-66
2023/08/24 13:46:54;;;;;;;;;;;;;;;;;;5055173;28;20002;-66
2023/08/24 13:49:19;;;;;;;;;;;;;;;;;;5058020;28;19917;-61
2023/08/24 13:51:45;;;;;;;;;;;;;;;;;;5055928;28;19924;-65
2023/08/24 13:54:11;;;;;;;;;;;;;;;;;;5054820;28;20409;-65
2023/08/24 13:56:38;;;;;;;;;;;;;;;;;;5059098;28;19912;-66
2023/08/24 13:59:04;;;;;;;;;;;;;;;;;;5063835;28;19913;-66
2023/08/24 14:01:30;;;;;;;;;;;;;;;;;;5056801;28;20345;-66
2023/08/24 14:03:55;;;;;;;;;;;;;;;;;;5066535;28;19916;-65
2023/08/24 14:06:21;;;;;;;;;;;;;;;;;;5064228;28;19988;-65
2023/08/24 14:08:47;;;;;;;;;;;;;;;;;;5072001;28;20360;-66
2023/08/24 14:11:15;;;;;;;;;;;;;;;;;;5057559;28;19916;-64
2023/08/24 14:13:41;;;;;;;;;;;;;;;;;;5058587;28;20391;-64
2023/08/24 14:16:07;;;;;;;;;;;;;;;;;;5058109;28;20092;-64
2023/08/24 14:18:36;;;;;;;;;;;;;;;;;;5067143;28;20584;-59
2023/08/24 14:21:02;;;;;;;;;;;;;;;;;;5062840;28;19916;-63
2023/08/24 14:23:28;;;;;;;;;;;;;;;;;;5066084;28;19917;-63
2023/08/24 14:25:53;;;;;;;;;;;;;;;;;;5064033;28;20450;-63
2023/08/24 14:28:19;;;;;;;;;;;;;;;;;;5061859;28;20398;-63
2023/08/24 14:30:46;;;;;;;;;;;;;;;;;;5063946;28;20014;-63
2023/08/24 14:33:12;;;;;;;;;;;;;;;;;;5062993;28;19999;-63
2023/08/24 14:35:37;;;;;;;;;;;;;;;;;;5063197;28;19987;-63
2023/08/24 14:38:03;;;;;;;;;;;;;;;;;;5057000;28;20398;-63
2023/08/24 14:40:29;;;;;;;;;;;;;;;;;;5058063;28;19917;-63
2023/08/24 14:42:55;;;;;;;;;;;;;;;;;;5055751;28;19960;-63
2023/08/24 14:45:21;;;;;;;;;;;;;;;;;;5067655;28;19919;-63
2023/08/24 14:47:47;;;;;;;;;;;;;;;;;;5061931;28;19917;-63
2023/08/24 14:50:13;;;;;;;;;;;;;;;;;;5075002;28;20024;-63
2023/08/24 14:52:39;;;;;;;;;;;;;;;;;;5066967;28;19956;-63
2023/08/24 14:55:05;;;;;;;;;;;;;;;;;;5065137;28;19939;-63
2023/08/24 14:57:31;;;;;;;;;;;;;;;;;;5070614;28;19948;-63
2023/08/24 14:59:57;;;;;;;;;;;;;;;;;;5070840;28;19916;-63
2023/08/24 15:02:22;;;;;;;;;;;;;;;;;;5060473;28;20463;-63
2023/08/24 15:04:48;;;;;;;;;;;;;;;;;;5066006;28;19969;-63
2023/08/24 15:07:14;;;;;;;;;;;;;;;;;;5066093;28;19959;-63
2023/08/24 15:09:40;;;;;;;;;;;;;;;;;;5062496;28;20443;-63
2023/08/24 15:12:06;;;;;;;;;;;;;;;;;;5058831;28;19916;-63
2023/08/24 15:14:32;;;;;;;;;;;;;;;;;;5072803;28;20016;-63
2023/08/24 15:16:58;;;;;;;;;;;;;;;;;;5074746;28;20372;-63
2023/08/24 15:19:24;;;;;;;;;;;;;;;;;;5062910;28;19912;-63
2023/08/24 15:21:50;;;;;;;;;;;;;;;;;;5064533;28;19973;-63
2023/08/24 15:24:15;;;;;;;;;;;;;;;;;;5072867;28;20075;-63
2023/08/24 15:26:41;;;;;;;;;;;;;;;;;;5075637;28;20428;-63
2023/08/24 15:29:07;;;;;;;;;;;;;;;;;;5068204;28;19973;-59
2023/08/24 15:31:35;;;;;;;;;;;;;;;;;;5069564;28;21382;-60
2023/08/24 15:34:01;;;;;;;;;;;;;;;;;;5070712;28;19940;-58
2023/08/24 15:36:27;;;;;;;;;;;;;;;;;;5078292;28;19919;-59
2023/08/24 15:38:53;;;;;;;;;;;;;;;;;;5070671;28;19962;-58
2023/08/24 15:41:19;;;;;;;;;;;;;;;;;;5059443;28;19916;-58
2023/08/24 15:43:45;;;;;;;;;;;;;;;;;;5070147;28;19924;-60
2023/08/24 15:46:10;;;;;;;;;;;;;;;;;;5062293;28;19954;-58
2023/08/24 15:48:37;;;;;;;;;;;;;;;;;;5064268;28;20400;-59
2023/08/24 15:51:05;;;;;;;;;;;;;;;;;;5067349;28;20280;-59
2023/08/24 15:53:31;;;;;;;;;;;;;;;;;;5062151;28;19912;-58
2023/08/24 15:55:57;;;;;;;;;;;;;;;;;;5059177;28;19971;-58
2023/08/24 15:58:23;;;;;;;;;;;;;;;;;;5054203;28;20448;-59
2023/08/24 16:00:49;;;;;;;;;;;;;;;;;;5060878;28;20003;-59
2023/08/24 16:03:15;;;;;;;;;;;;;;;;;;5063569;28;19923;-58
2023/08/24 16:05:41;;;;;;;;;;;;;;;;;;5065391;28;19951;-58
2023/08/24 16:08:07;;;;;;;;;;;;;;;;;;5061565;28;20341;-61
2023/08/24 16:10:33;;;;;;;;;;;;;;;;;;5057992;28;19916;-61
2023/08/24 16:12:59;;;;;;;;;;;;;;;;;;5059357;28;20001;-58
2023/08/24 16:15:25;;;;;;;;;;;;;;;;;;5059564;28;19913;-57
2023/08/24 16:17:51;;;;;;;;;;;;;;;;;;5064528;28;19921;-58
2023/08/24 16:20:17;;;;;;;;;;;;;;;;;;5064697;28;19959;-58
2023/08/24 16:22:43;;;;;;;;;;;;;;;;;;5068341;28;20252;-58
2023/08/24 16:25:08;;;;;;;;;;;;;;;;;;5068456;28;19952;-58
2023/08/24 16:27:34;;;;;;;;;;;;;;;;;;5066407;28;20019;-58
2023/08/24 16:30:01;;;;;;;;;;;;;;;;;;5064557;28;20288;-58
2023/08/24 16:32:26;;;;;;;;;;;;;;;;;;5068306;28;19916;-59
2023/08/24 16:34:52;;;;;;;;;;;;;;;;;;5061579;28;19965;-58
2023/08/24 16:37:18;;;;;;;;;;;;;;;;;;5061910;28;20452;-60